Terminal Aerodrome Forecast
Issued by NWS

Home | Current Version | Previous Version | Text Only | Print | Product List | Glossary On
Versions: 1 2 3 4 5 6 7 8 9 10 11 12 13 14 15 16 17 18 19
000
FTUS46 KMTR 212300
TAFSJC
TAF
KSJC 212335Z 2200/2224 30013KT P6SM FEW140 SCT250
     FM220200 31006KT P6SM SCT250
     FM220400 VRB04KT P6SM FEW250
     FM220800 00000KT P6SM FEW250
     FM221700 VRB03KT P6SM BKN250
     FM222100 30008KT P6SM BKN250=

USA.gov is the U.S. government's official web portal to all federal, state and local government web resources and services.